sensor_id;sensor_type;location;lat;lon;timestamp;temperature;humidity
11538;DHT22;50159;49.426;11.182;2024-01-30T00:00:25;-0.90;99.90
11538;DHT22;50159;49.426;11.182;2024-01-30T00:02:52;-0.90;99.90
11538;DHT22;50159;49.426;11.182;2024-01-30T00:05:19;-0.90;99.90
11538;DHT22;50159;49.426;11.182;2024-01-30T00:07:45;-0.90;99.90
11538;DHT22;50159;49.426;11.182;2024-01-30T00:10:12;-0.90;99.90
11538;DHT22;50159;49.426;11.182;2024-01-30T00:12:39;-0.90;99.90
11538;DHT22;50159;49.426;11.182;2024-01-30T00:15:06;-0.90;99.90
11538;DHT22;50159;49.426;11.182;2024-01-30T00:17:36;-0.90;99.90
11538;DHT22;50159;49.426;11.182;2024-01-30T00:20:04;-0.90;99.90
11538;DHT22;50159;49.426;11.182;2024-01-30T00:22:32;-1.00;99.90
11538;DHT22;50159;49.426;11.182;2024-01-30T00:24:59;-1.00;99.90
11538;DHT22;50159;49.426;11.182;2024-01-30T00:27:26;-1.00;99.90
11538;DHT22;50159;49.426;11.182;2024-01-30T00:29:54;-1.00;99.90
11538;DHT22;50159;49.426;11.182;2024-01-30T00:32:21;-1.00;99.90
11538;DHT22;50159;49.426;11.182;2024-01-30T00:34:49;-1.00;99.90
11538;DHT22;50159;49.426;11.182;2024-01-30T00:37:16;-1.10;99.90
11538;DHT22;50159;49.426;11.182;2024-01-30T00:39:43;-1.10;99.90
11538;DHT22;50159;49.426;11.182;2024-01-30T00:42:10;-1.10;99.90
11538;DHT22;50159;49.426;11.182;2024-01-30T00:44:37;-1.10;99.90
11538;DHT22;50159;49.426;11.182;2024-01-30T00:47:05;-1.20;99.90
11538;DHT22;50159;49.426;11.182;2024-01-30T00:49:32;-1.20;99.90
11538;DHT22;50159;49.426;11.182;2024-01-30T00:52:00;-1.20;99.90
11538;DHT22;50159;49.426;11.182;2024-01-30T00:54:27;-1.20;99.90
11538;DHT22;50159;49.426;11.182;2024-01-30T00:56:54;-1.20;99.90
11538;DHT22;50159;49.426;11.182;2024-01-30T00:59:21;-1.20;99.90
11538;DHT22;50159;49.426;11.182;2024-01-30T01:01:47;-1.20;99.90
11538;DHT22;50159;49.426;11.182;2024-01-30T01:04:14;-1.20;99.90
11538;DHT22;50159;49.426;11.182;2024-01-30T01:06:41;-1.20;99.90
11538;DHT22;50159;49.426;11.182;2024-01-30T01:09:11;-1.20;99.90
11538;DHT22;50159;49.426;11.182;2024-01-30T01:11:38;-1.20;99.90
11538;DHT22;50159;49.426;11.182;2024-01-30T01:14:05;-1.30;99.90
11538;DHT22;50159;49.426;11.182;2024-01-30T01:16:33;-1.30;99.90
11538;DHT22;50159;49.426;11.182;2024-01-30T01:19:00;-1.30;99.90
11538;DHT22;50159;49.426;11.182;2024-01-30T01:21:28;-1.30;99.90
11538;DHT22;50159;49.426;11.182;2024-01-30T01:23:55;-1.30;99.90
11538;DHT22;50159;49.426;11.182;2024-01-30T01:26:23;-1.30;99.90
11538;DHT22;50159;49.426;11.182;2024-01-30T01:28:49;-1.30;99.90
11538;DHT22;50159;49.426;11.182;2024-01-30T01:31:16;-1.30;99.90
11538;DHT22;50159;49.426;11.182;2024-01-30T01:33:44;-1.30;99.90
11538;DHT22;50159;49.426;11.182;2024-01-30T01:36:11;-1.20;99.90
11538;DHT22;50159;49.426;11.182;2024-01-30T01:38:40;-1.20;99.90
11538;DHT22;50159;49.426;11.182;2024-01-30T01:41:07;-1.20;99.90
11538;DHT22;50159;49.426;11.182;2024-01-30T01:43:33;-1.20;99.90
11538;DHT22;50159;49.426;11.182;2024-01-30T01:46:01;-1.20;99.90
11538;DHT22;50159;49.426;11.182;2024-01-30T01:48:29;-1.20;99.90
11538;DHT22;50159;49.426;11.182;2024-01-30T01:50:56;-1.20;99.90
11538;DHT22;50159;49.426;11.182;2024-01-30T01:53:24;-1.20;99.90
11538;DHT22;50159;49.426;11.182;2024-01-30T01:55:54;-1.20;99.90
11538;DHT22;50159;49.426;11.182;2024-01-30T01:58:21;-1.20;99.90
11538;DHT22;50159;49.426;11.182;2024-01-30T02:00:50;-1.20;99.90
11538;DHT22;50159;49.426;11.182;2024-01-30T02:03:18;-1.30;99.90
11538;DHT22;50159;49.426;11.182;2024-01-30T02:05:49;-1.30;99.90
11538;DHT22;50159;49.426;11.182;2024-01-30T02:08:17;-1.30;99.90
11538;DHT22;50159;49.426;11.182;2024-01-30T02:10:44;-1.30;99.90
11538;DHT22;50159;49.426;11.182;2024-01-30T02:13:11;-1.30;99.90
11538;DHT22;50159;49.426;11.182;2024-01-30T02:15:38;-1.30;99.90
11538;DHT22;50159;49.426;11.182;2024-01-30T02:18:05;-1.30;99.90
11538;DHT22;50159;49.426;11.182;2024-01-30T02:20:35;-1.20;99.90
11538;DHT22;50159;49.426;11.182;2024-01-30T02:23:04;-1.20;99.90
11538;DHT22;50159;49.426;11.182;2024-01-30T02:25:40;-1.10;99.90
11538;DHT22;50159;49.426;11.182;2024-01-30T02:28:13;-1.10;99.90
11538;DHT22;50159;49.426;11.182;2024-01-30T02:30:43;-1.00;99.90
11538;DHT22;50159;49.426;11.182;2024-01-30T02:33:10;-1.00;99.90
11538;DHT22;50159;49.426;11.182;2024-01-30T02:35:37;-0.90;99.90
11538;DHT22;50159;49.426;11.182;2024-01-30T02:38:04;-0.80;99.90
11538;DHT22;50159;49.426;11.182;2024-01-30T02:40:31;-0.70;99.90
11538;DHT22;50159;49.426;11.182;2024-01-30T02:42:59;-0.70;99.90
11538;DHT22;50159;49.426;11.182;2024-01-30T02:45:28;-0.60;99.90
11538;DHT22;50159;49.426;11.182;2024-01-30T02:47:55;-0.50;99.90
11538;DHT22;50159;49.426;11.182;2024-01-30T02:50:21;-0.40;99.90
11538;DHT22;50159;49.426;11.182;2024-01-30T02:52:48;-0.30;99.90
11538;DHT22;50159;49.426;11.182;2024-01-30T02:55:15;-0.20;99.90
11538;DHT22;50159;49.426;11.182;2024-01-30T02:57:45;-0.20;99.90
11538;DHT22;50159;49.426;11.182;2024-01-30T03:00:12;-0.20;99.90
11538;DHT22;50159;49.426;11.182;2024-01-30T03:02:39;-0.30;99.90
11538;DHT22;50159;49.426;11.182;2024-01-30T03:05:07;-0.30;99.90
11538;DHT22;50159;49.426;11.182;2024-01-30T03:07:34;-0.40;99.90
11538;DHT22;50159;49.426;11.182;2024-01-30T03:10:02;-0.40;99.90
11538;DHT22;50159;49.426;11.182;2024-01-30T03:12:29;-0.40;99.90
11538;DHT22;50159;49.426;11.182;2024-01-30T03:14:56;-0.40;99.90
11538;DHT22;50159;49.426;11.182;2024-01-30T03:17:22;-0.50;99.90
11538;DHT22;50159;49.426;11.182;2024-01-30T03:19:51;-0.50;99.90
11538;DHT22;50159;49.426;11.182;2024-01-30T03:22:18;-0.60;99.90
11538;DHT22;50159;49.426;11.182;2024-01-30T03:24:45;-0.60;99.90
11538;DHT22;50159;49.426;11.182;2024-01-30T03:27:12;-0.60;99.90
11538;DHT22;50159;49.426;11.182;2024-01-30T03:29:38;-0.60;99.90
11538;DHT22;50159;49.426;11.182;2024-01-30T03:32:05;-0.70;99.90
11538;DHT22;50159;49.426;11.182;2024-01-30T03:34:32;-0.70;99.90
11538;DHT22;50159;49.426;11.182;2024-01-30T03:36:59;-0.70;99.90
11538;DHT22;50159;49.426;11.182;2024-01-30T03:39:26;-0.70;99.90
11538;DHT22;50159;49.426;11.182;2024-01-30T03:41:53;-0.80;99.90
11538;DHT22;50159;49.426;11.182;2024-01-30T03:44:20;-0.80;99.90
11538;DHT22;50159;49.426;11.182;2024-01-30T03:46:46;-0.80;99.90
11538;DHT22;50159;49.426;11.182;2024-01-30T03:49:13;-0.90;99.90
11538;DHT22;50159;49.426;11.182;2024-01-30T03:51:40;-0.90;99.90
11538;DHT22;50159;49.426;11.182;2024-01-30T03:54:07;-0.90;99.90
11538;DHT22;50159;49.426;11.182;2024-01-30T03:56:34;-0.90;99.90
11538;DHT22;50159;49.426;11.182;2024-01-30T03:59:01;-0.90;99.90
11538;DHT22;50159;49.426;11.182;2024-01-30T04:01:29;-0.90;99.90
11538;DHT22;50159;49.426;11.182;2024-01-30T04:03:56;-0.80;99.90
11538;DHT22;50159;49.426;11.182;2024-01-30T04:06:23;-0.90;99.90
11538;DHT22;50159;49.426;11.182;2024-01-30T04:08:50;-0.90;99.90
11538;DHT22;50159;49.426;11.182;2024-01-30T04:11:18;-0.90;99.90
11538;DHT22;50159;49.426;11.182;2024-01-30T04:13:46;-0.90;99.90
11538;DHT22;50159;49.426;11.182;2024-01-30T04:16:21;-0.90;99.90
11538;DHT22;50159;49.426;11.182;2024-01-30T04:18:49;-0.90;99.90
11538;DHT22;50159;49.426;11.182;2024-01-30T04:21:16;-0.90;99.90
11538;DHT22;50159;49.426;11.182;2024-01-30T04:23:43;-1.00;99.90
11538;DHT22;50159;49.426;11.182;2024-01-30T04:26:13;-1.00;99.90
11538;DHT22;50159;49.426;11.182;2024-01-30T04:28:41;-1.00;99.90
11538;DHT22;50159;49.426;11.182;2024-01-30T04:31:08;-1.00;99.90
11538;DHT22;50159;49.426;11.182;2024-01-30T04:33:36;-1.00;99.90
11538;DHT22;50159;49.426;11.182;2024-01-30T04:36:04;-1.00;99.90
11538;DHT22;50159;49.426;11.182;2024-01-30T04:38:31;-1.10;99.90
11538;DHT22;50159;49.426;11.182;2024-01-30T04:40:58;-1.00;99.90
11538;DHT22;50159;49.426;11.182;2024-01-30T04:43:25;-1.00;99.90
11538;DHT22;50159;49.426;11.182;2024-01-30T04:45:53;-1.00;99.90
11538;DHT22;50159;49.426;11.182;2024-01-30T04:48:19;-1.00;99.90
11538;DHT22;50159;49.426;11.182;2024-01-30T04:50:46;-0.90;99.90
11538;DHT22;50159;49.426;11.182;2024-01-30T04:53:13;-0.90;99.90
11538;DHT22;50159;49.426;11.182;2024-01-30T04:55:40;-0.90;99.90
11538;DHT22;50159;49.426;11.182;2024-01-30T04:58:07;-0.90;99.90
11538;DHT22;50159;49.426;11.182;2024-01-30T05:00:34;-0.90;99.90
11538;DHT22;50159;49.426;11.182;2024-01-30T05:03:01;-0.90;99.90
11538;DHT22;50159;49.426;11.182;2024-01-30T05:05:27;-0.90;99.90
11538;DHT22;50159;49.426;11.182;2024-01-30T05:07:54;-0.90;99.90
11538;DHT22;50159;49.426;11.182;2024-01-30T05:10:21;-0.90;99.90
11538;DHT22;50159;49.426;11.182;2024-01-30T05:12:48;-0.90;99.90
11538;DHT22;50159;49.426;11.182;2024-01-30T05:15:15;-0.90;99.90
11538;DHT22;50159;49.426;11.182;2024-01-30T05:17:42;-0.90;99.90
11538;DHT22;50159;49.426;11.182;2024-01-30T05:20:09;-0.90;99.90
11538;DHT22;50159;49.426;11.182;2024-01-30T05:22:37;-0.90;99.90
11538;DHT22;50159;49.426;11.182;2024-01-30T05:25:05;-0.90;99.90
11538;DHT22;50159;49.426;11.182;2024-01-30T05:27:32;-0.90;99.90
11538;DHT22;50159;49.426;11.182;2024-01-30T05:29:59;-0.90;99.90
11538;DHT22;50159;49.426;11.182;2024-01-30T05:32:26;-0.90;99.90
11538;DHT22;50159;49.426;11.182;2024-01-30T05:34:52;-0.90;99.90
11538;DHT22;50159;49.426;11.182;2024-01-30T05:37:19;-0.90;99.90
11538;DHT22;50159;49.426;11.182;2024-01-30T05:39:46;-0.90;99.90
11538;DHT22;50159;49.426;11.182;2024-01-30T05:42:13;-1.00;99.90
11538;DHT22;50159;49.426;11.182;2024-01-30T05:44:41;-1.00;99.90
11538;DHT22;50159;49.426;11.182;2024-01-30T05:47:08;-1.00;99.90
11538;DHT22;50159;49.426;11.182;2024-01-30T05:49:35;-1.00;99.90
11538;DHT22;50159;49.426;11.182;2024-01-30T05:52:03;-0.90;99.90
11538;DHT22;50159;49.426;11.182;2024-01-30T05:54:30;-0.90;99.90
11538;DHT22;50159;49.426;11.182;2024-01-30T05:56:57;-0.90;99.90
11538;DHT22;50159;49.426;11.182;2024-01-30T05:59:25;-0.90;99.90
11538;DHT22;50159;49.426;11.182;2024-01-30T06:01:51;-0.90;99.90
11538;DHT22;50159;49.426;11.182;2024-01-30T06:04:18;-0.90;99.90
11538;DHT22;50159;49.426;11.182;2024-01-30T06:06:45;-0.90;99.90
11538;DHT22;50159;49.426;11.182;2024-01-30T06:09:12;-0.90;99.90
11538;DHT22;50159;49.426;11.182;2024-01-30T06:11:39;-0.90;99.90
11538;DHT22;50159;49.426;11.182;2024-01-30T06:14:06;-0.90;99.90
11538;DHT22;50159;49.426;11.182;2024-01-30T06:16:33;-0.90;99.90
11538;DHT22;50159;49.426;11.182;2024-01-30T06:19:00;-0.90;99.90
11538;DHT22;50159;49.426;11.182;2024-01-30T06:21:27;-0.90;99.90
11538;DHT22;50159;49.426;11.182;2024-01-30T06:23:54;-0.80;99.90
11538;DHT22;50159;49.426;11.182;2024-01-30T06:26:21;-0.90;99.90
11538;DHT22;50159;49.426;11.182;2024-01-30T06:28:47;-0.90;99.90
11538;DHT22;50159;49.426;11.182;2024-01-30T06:31:14;-0.90;99.90
11538;DHT22;50159;49.426;11.182;2024-01-30T06:33:41;-0.90;99.90
11538;DHT22;50159;49.426;11.182;2024-01-30T06:36:08;-0.90;99.90
11538;DHT22;50159;49.426;11.182;2024-01-30T06:38:35;-0.90;99.90
11538;DHT22;50159;49.426;11.182;2024-01-30T06:41:02;-0.90;99.90
11538;DHT22;50159;49.426;11.182;2024-01-30T06:43:29;-0.90;99.90
11538;DHT22;50159;49.426;11.182;2024-01-30T06:45:56;-0.90;99.90
11538;DHT22;50159;49.426;11.182;2024-01-30T06:48:23;-0.90;99.90
11538;DHT22;50159;49.426;11.182;2024-01-30T06:50:50;-0.90;99.90
11538;DHT22;50159;49.426;11.182;2024-01-30T06:53:17;-0.90;99.90
11538;DHT22;50159;49.426;11.182;2024-01-30T06:55:44;-0.90;99.90
11538;DHT22;50159;49.426;11.182;2024-01-30T06:58:11;-0.90;99.90
11538;DHT22;50159;49.426;11.182;2024-01-30T07:00:37;-0.90;99.90
11538;DHT22;50159;49.426;11.182;2024-01-30T07:03:04;-0.80;99.90
11538;DHT22;50159;49.426;11.182;2024-01-30T07:05:32;-0.80;99.90
11538;DHT22;50159;49.426;11.182;2024-01-30T07:07:59;-0.80;99.90
11538;DHT22;50159;49.426;11.182;2024-01-30T07:10:26;-0.70;99.90
11538;DHT22;50159;49.426;11.182;2024-01-30T07:12:53;-0.70;99.90
11538;DHT22;50159;49.426;11.182;2024-01-30T07:15:20;-0.70;99.90
11538;DHT22;50159;49.426;11.182;2024-01-30T07:17:47;-0.70;99.90
11538;DHT22;50159;49.426;11.182;2024-01-30T07:20:14;-0.60;99.90
11538;DHT22;50159;49.426;11.182;2024-01-30T07:22:44;-0.60;99.90
11538;DHT22;50159;49.426;11.182;2024-01-30T07:25:11;-0.60;99.90
11538;DHT22;50159;49.426;11.182;2024-01-30T07:27:38;-0.50;99.90
11538;DHT22;50159;49.426;11.182;2024-01-30T07:30:05;-0.40;99.90
11538;DHT22;50159;49.426;11.182;2024-01-30T07:32:33;-0.40;99.90
11538;DHT22;50159;49.426;11.182;2024-01-30T07:35:02;-0.30;99.90
11538;DHT22;50159;49.426;11.182;2024-01-30T07:37:35;-0.20;99.90
11538;DHT22;50159;49.426;11.182;2024-01-30T07:40:03;-0.20;99.90
11538;DHT22;50159;49.426;11.182;2024-01-30T07:42:31;-0.10;99.90
11538;DHT22;50159;49.426;11.182;2024-01-30T07:45:00;0.10;99.90
11538;DHT22;50159;49.426;11.182;2024-01-30T07:47:27;0.50;99.90
11538;DHT22;50159;49.426;11.182;2024-01-30T07:49:54;1.10;99.90
11538;DHT22;50159;49.426;11.182;2024-01-30T07:52:21;1.90;99.90
11538;DHT22;50159;49.426;11.182;2024-01-30T07:54:48;2.70;99.90
11538;DHT22;50159;49.426;11.182;2024-01-30T07:57:16;3.30;99.90
11538;DHT22;50159;49.426;11.182;2024-01-30T07:59:46;3.60;99.90
11538;DHT22;50159;49.426;11.182;2024-01-30T08:02:13;3.90;99.90
11538;DHT22;50159;49.426;11.182;2024-01-30T08:04:40;4.00;99.90
11538;DHT22;50159;49.426;11.182;2024-01-30T08:07:07;3.90;99.90
11538;DHT22;50159;49.426;11.182;2024-01-30T08:09:34;3.90;99.90
11538;DHT22;50159;49.426;11.182;2024-01-30T08:12:01;3.90;99.90
11538;DHT22;50159;49.426;11.182;2024-01-30T08:14:28;3.90;99.90
11538;DHT22;50159;49.426;11.182;2024-01-30T08:16:55;3.80;99.90
11538;DHT22;50159;49.426;11.182;2024-01-30T08:19:22;3.70;99.90
11538;DHT22;50159;49.426;11.182;2024-01-30T08:21:49;3.50;99.90
11538;DHT22;50159;49.426;11.182;2024-01-30T08:24:16;3.40;99.90
11538;DHT22;50159;49.426;11.182;2024-01-30T08:26:42;3.20;99.90
11538;DHT22;50159;49.426;11.182;2024-01-30T08:29:09;3.10;99.90
11538;DHT22;50159;49.426;11.182;2024-01-30T08:31:37;3.00;99.90
11538;DHT22;50159;49.426;11.182;2024-01-30T08:34:04;2.90;99.90
11538;DHT22;50159;49.426;11.182;2024-01-30T08:36:31;2.70;99.90
11538;DHT22;50159;49.426;11.182;2024-01-30T08:38:57;2.60;99.90
11538;DHT22;50159;49.426;11.182;2024-01-30T08:41:29;2.50;99.90
11538;DHT22;50159;49.426;11.182;2024-01-30T08:43:56;2.40;99.90
11538;DHT22;50159;49.426;11.182;2024-01-30T08:46:23;2.40;99.90
11538;DHT22;50159;49.426;11.182;2024-01-30T08:48:50;2.40;99.90
11538;DHT22;50159;49.426;11.182;2024-01-30T08:51:17;2.40;99.90
11538;DHT22;50159;49.426;11.182;2024-01-30T08:53:44;2.40;99.90
11538;DHT22;50159;49.426;11.182;2024-01-30T08:56:11;2.50;99.90
11538;DHT22;50159;49.426;11.182;2024-01-30T08:58:38;2.60;99.90
11538;DHT22;50159;49.426;11.182;2024-01-30T09:01:05;2.60;99.90
11538;DHT22;50159;49.426;11.182;2024-01-30T09:03:32;2.70;99.90
11538;DHT22;50159;49.426;11.182;2024-01-30T09:06:00;2.80;99.90
11538;DHT22;50159;49.426;11.182;2024-01-30T09:08:27;2.80;99.90
11538;DHT22;50159;49.426;11.182;2024-01-30T09:10:54;2.90;99.90
11538;DHT22;50159;49.426;11.182;2024-01-30T09:13:21;3.00;99.90
11538;DHT22;50159;49.426;11.182;2024-01-30T09:15:48;3.10;99.90
11538;DHT22;50159;49.426;11.182;2024-01-30T09:18:15;3.20;99.90
11538;DHT22;50159;49.426;11.182;2024-01-30T09:20:42;3.30;99.90
11538;DHT22;50159;49.426;11.182;2024-01-30T09:23:08;3.40;99.90
11538;DHT22;50159;49.426;11.182;2024-01-30T09:25:35;3.50;99.90
11538;DHT22;50159;49.426;11.182;2024-01-30T09:28:02;3.60;99.90
11538;DHT22;50159;49.426;11.182;2024-01-30T09:30:29;3.70;99.90
11538;DHT22;50159;49.426;11.182;2024-01-30T09:32:56;3.80;99.90
11538;DHT22;50159;49.426;11.182;2024-01-30T09:35:23;3.90;99.90
11538;DHT22;50159;49.426;11.182;2024-01-30T09:37:50;4.10;99.90
11538;DHT22;50159;49.426;11.182;2024-01-30T09:40:18;4.20;99.90
11538;DHT22;50159;49.426;11.182;2024-01-30T09:42:47;4.30;99.90
11538;DHT22;50159;49.426;11.182;2024-01-30T09:45:24;4.40;99.90
11538;DHT22;50159;49.426;11.182;2024-01-30T09:47:52;4.50;99.90
11538;DHT22;50159;49.426;11.182;2024-01-30T09:50:20;4.60;99.90
11538;DHT22;50159;49.426;11.182;2024-01-30T09:52:47;4.80;99.90
11538;DHT22;50159;49.426;11.182;2024-01-30T09:55:14;4.90;99.90
11538;DHT22;50159;49.426;11.182;2024-01-30T09:57:42;5.10;99.90
11538;DHT22;50159;49.426;11.182;2024-01-30T10:00:09;5.30;99.90
11538;DHT22;50159;49.426;11.182;2024-01-30T10:02:38;5.50;99.90
11538;DHT22;50159;49.426;11.182;2024-01-30T10:05:05;5.80;99.90
11538;DHT22;50159;49.426;11.182;2024-01-30T10:07:33;6.00;99.90
11538;DHT22;50159;49.426;11.182;2024-01-30T10:10:00;6.20;99.90
11538;DHT22;50159;49.426;11.182;2024-01-30T10:12:29;6.30;99.90
11538;DHT22;50159;49.426;11.182;2024-01-30T10:14:56;6.40;99.90
11538;DHT22;50159;49.426;11.182;2024-01-30T10:17:25;6.50;99.90
11538;DHT22;50159;49.426;11.182;2024-01-30T10:19:59;6.50;99.20
11538;DHT22;50159;49.426;11.182;2024-01-30T10:22:28;6.50;99.10
11538;DHT22;50159;49.426;11.182;2024-01-30T10:24:55;6.50;98.90
11538;DHT22;50159;49.426;11.182;2024-01-30T10:27:26;6.50;98.50
11538;DHT22;50159;49.426;11.182;2024-01-30T10:29:54;6.50;97.90
11538;DHT22;50159;49.426;11.182;2024-01-30T10:32:21;6.50;97.60
11538;DHT22;50159;49.426;11.182;2024-01-30T10:34:48;6.60;97.20
11538;DHT22;50159;49.426;11.182;2024-01-30T10:37:16;6.50;96.90
11538;DHT22;50159;49.426;11.182;2024-01-30T10:39:46;6.50;97.00
11538;DHT22;50159;49.426;11.182;2024-01-30T10:42:15;6.50;97.00
11538;DHT22;50159;49.426;11.182;2024-01-30T10:45:00;6.60;97.20
11538;DHT22;50159;49.426;11.182;2024-01-30T10:47:35;6.60;97.20
11538;DHT22;50159;49.426;11.182;2024-01-30T10:50:03;6.60;96.80
11538;DHT22;50159;49.426;11.182;2024-01-30T10:52:32;6.70;96.80
11538;DHT22;50159;49.426;11.182;2024-01-30T10:54:59;6.80;96.70
11538;DHT22;50159;49.426;11.182;2024-01-30T10:57:27;6.80;96.60
11538;DHT22;50159;49.426;11.182;2024-01-30T10:59:58;6.80;96.50
11538;DHT22;50159;49.426;11.182;2024-01-30T11:02:27;6.90;95.80
11538;DHT22;50159;49.426;11.182;2024-01-30T11:04:57;7.00;95.90
11538;DHT22;50159;49.426;11.182;2024-01-30T11:07:28;7.00;95.10
11538;DHT22;50159;49.426;11.182;2024-01-30T11:12:28;7.20;95.10
11538;DHT22;50159;49.426;11.182;2024-01-30T11:15:06;7.20;95.00
11538;DHT22;50159;49.426;11.182;2024-01-30T11:20:21;7.30;94.50
11538;DHT22;50159;49.426;11.182;2024-01-30T11:22:52;7.30;94.70
11538;DHT22;50159;49.426;11.182;2024-01-30T11:25:20;7.30;94.50
11538;DHT22;50159;49.426;11.182;2024-01-30T11:27:51;7.40;94.50
11538;DHT22;50159;49.426;11.182;2024-01-30T11:30:28;7.40;94.60
11538;DHT22;50159;49.426;11.182;2024-01-30T11:33:02;7.40;94.40
11538;DHT22;50159;49.426;11.182;2024-01-30T11:35:35;7.50;94.10
11538;DHT22;50159;49.426;11.182;2024-01-30T11:38:03;7.50;93.80
11538;DHT22;50159;49.426;11.182;2024-01-30T11:40:32;7.60;93.60
11538;DHT22;50159;49.426;11.182;2024-01-30T11:43:01;7.60;93.40
11538;DHT22;50159;49.426;11.182;2024-01-30T11:45:32;7.70;93.60
11538;DHT22;50159;49.426;11.182;2024-01-30T11:48:00;7.70;93.50
11538;DHT22;50159;49.426;11.182;2024-01-30T11:50:33;7.70;93.20
11538;DHT22;50159;49.426;11.182;2024-01-30T11:53:01;7.80;93.00
11538;DHT22;50159;49.426;11.182;2024-01-30T11:55:32;7.80;93.00
11538;DHT22;50159;49.426;11.182;2024-01-30T11:58:01;7.80;92.90
11538;DHT22;50159;49.426;11.182;2024-01-30T12:00:30;7.80;92.80
11538;DHT22;50159;49.426;11.182;2024-01-30T12:03:01;7.90;92.70
11538;DHT22;50159;49.426;11.182;2024-01-30T12:05:29;7.90;92.30
11538;DHT22;50159;49.426;11.182;2024-01-30T12:07:56;7.90;92.60
11538;DHT22;50159;49.426;11.182;2024-01-30T12:10:29;8.00;92.40
11538;DHT22;50159;49.426;11.182;2024-01-30T12:12:56;8.00;91.90
11538;DHT22;50159;49.426;11.182;2024-01-30T12:15:24;8.10;91.70
11538;DHT22;50159;49.426;11.182;2024-01-30T12:17:51;8.10;91.60
11538;DHT22;50159;49.426;11.182;2024-01-30T12:20:19;8.10;91.50
11538;DHT22;50159;49.426;11.182;2024-01-30T12:22:49;8.10;91.70
11538;DHT22;50159;49.426;11.182;2024-01-30T12:25:17;8.20;91.70
11538;DHT22;50159;49.426;11.182;2024-01-30T12:27:48;8.30;91.50
11538;DHT22;50159;49.426;11.182;2024-01-30T12:30:19;8.40;91.50
11538;DHT22;50159;49.426;11.182;2024-01-30T12:32:50;8.60;91.30
11538;DHT22;50159;49.426;11.182;2024-01-30T12:35:19;8.70;90.90
11538;DHT22;50159;49.426;11.182;2024-01-30T12:37:48;8.70;91.10
11538;DHT22;50159;49.426;11.182;2024-01-30T12:40:16;8.80;90.90
11538;DHT22;50159;49.426;11.182;2024-01-30T12:42:46;8.80;90.70
11538;DHT22;50159;49.426;11.182;2024-01-30T12:45:17;8.90;90.40
11538;DHT22;50159;49.426;11.182;2024-01-30T12:47:49;8.90;90.30
11538;DHT22;50159;49.426;11.182;2024-01-30T12:50:16;8.90;89.60
11538;DHT22;50159;49.426;11.182;2024-01-30T12:52:44;8.90;89.80
11538;DHT22;50159;49.426;11.182;2024-01-30T12:55:15;9.00;89.70
11538;DHT22;50159;49.426;11.182;2024-01-30T12:57:42;9.00;89.50
11538;DHT22;50159;49.426;11.182;2024-01-30T13:00:10;9.10;88.90
11538;DHT22;50159;49.426;11.182;2024-01-30T13:02:37;9.10;88.90
11538;DHT22;50159;49.426;11.182;2024-01-30T13:05:04;9.20;88.50
11538;DHT22;50159;49.426;11.182;2024-01-30T13:07:32;9.30;88.80
11538;DHT22;50159;49.426;11.182;2024-01-30T13:09:59;9.40;88.60
11538;DHT22;50159;49.426;11.182;2024-01-30T13:12:31;9.50;88.50
11538;DHT22;50159;49.426;11.182;2024-01-30T13:15:02;9.60;88.10
11538;DHT22;50159;49.426;11.182;2024-01-30T13:17:31;9.80;87.80
11538;DHT22;50159;49.426;11.182;2024-01-30T13:19:58;9.90;87.00
11538;DHT22;50159;49.426;11.182;2024-01-30T13:22:36;10.10;84.90
11538;DHT22;50159;49.426;11.182;2024-01-30T13:25:05;10.30;84.20
11538;DHT22;50159;49.426;11.182;2024-01-30T13:27:33;10.50;83.60
11538;DHT22;50159;49.426;11.182;2024-01-30T13:30:00;10.60;82.40
11538;DHT22;50159;49.426;11.182;2024-01-30T13:32:27;10.80;81.80
11538;DHT22;50159;49.426;11.182;2024-01-30T13:34:54;10.80;79.10
11538;DHT22;50159;49.426;11.182;2024-01-30T13:37:22;10.80;78.80
11538;DHT22;50159;49.426;11.182;2024-01-30T13:39:50;10.70;79.00
11538;DHT22;50159;49.426;11.182;2024-01-30T13:42:17;10.80;79.30
11538;DHT22;50159;49.426;11.182;2024-01-30T13:44:43;10.80;78.80
11538;DHT22;50159;49.426;11.182;2024-01-30T13:47:10;10.90;78.40
11538;DHT22;50159;49.426;11.182;2024-01-30T13:49:37;10.90;76.60
11538;DHT22;50159;49.426;11.182;2024-01-30T13:52:04;10.90;76.00
11538;DHT22;50159;49.426;11.182;2024-01-30T13:54:32;10.90;76.10
11538;DHT22;50159;49.426;11.182;2024-01-30T13:56:58;10.90;76.40
11538;DHT22;50159;49.426;11.182;2024-01-30T13:59:25;11.00;76.50
11538;DHT22;50159;49.426;11.182;2024-01-30T14:01:52;11.10;76.40
11538;DHT22;50159;49.426;11.182;2024-01-30T14:04:19;11.30;75.70
11538;DHT22;50159;49.426;11.182;2024-01-30T14:06:46;11.60;73.50
11538;DHT22;50159;49.426;11.182;2024-01-30T14:09:26;11.90;73.70
11538;DHT22;50159;49.426;11.182;2024-01-30T14:11:53;12.20;71.80
11538;DHT22;50159;49.426;11.182;2024-01-30T14:14:20;12.30;70.40
11538;DHT22;50159;49.426;11.182;2024-01-30T14:16:47;12.20;69.50
11538;DHT22;50159;49.426;11.182;2024-01-30T14:19:13;11.90;69.30
11538;DHT22;50159;49.426;11.182;2024-01-30T14:21:40;11.60;70.20
11538;DHT22;50159;49.426;11.182;2024-01-30T14:24:08;10.40;70.70
11538;DHT22;50159;49.426;11.182;2024-01-30T14:26:35;11.10;72.90
11538;DHT22;50159;49.426;11.182;2024-01-30T14:29:03;11.00;73.40
11538;DHT22;50159;49.426;11.182;2024-01-30T14:31:29;10.90;74.10
11538;DHT22;50159;49.426;11.182;2024-01-30T14:33:56;10.90;73.90
11538;DHT22;50159;49.426;11.182;2024-01-30T14:36:24;10.80;73.10
11538;DHT22;50159;49.426;11.182;2024-01-30T14:38:54;10.60;73.30
11538;DHT22;50159;49.426;11.182;2024-01-30T14:41:22;10.40;74.10
11538;DHT22;50159;49.426;11.182;2024-01-30T14:43:49;10.20;75.20
11538;DHT22;50159;49.426;11.182;2024-01-30T14:46:16;10.00;75.90
11538;DHT22;50159;49.426;11.182;2024-01-30T14:48:43;9.80;77.90
11538;DHT22;50159;49.426;11.182;2024-01-30T14:51:10;9.60;79.30
11538;DHT22;50159;49.426;11.182;2024-01-30T14:53:37;9.60;79.80
11538;DHT22;50159;49.426;11.182;2024-01-30T14:56:04;9.40;80.10
11538;DHT22;50159;49.426;11.182;2024-01-30T14:58:32;9.30;81.40
11538;DHT22;50159;49.426;11.182;2024-01-30T15:00:59;9.30;81.90
11538;DHT22;50159;49.426;11.182;2024-01-30T15:03:27;9.20;82.30
11538;DHT22;50159;49.426;11.182;2024-01-30T15:05:57;9.10;82.90
11538;DHT22;50159;49.426;11.182;2024-01-30T15:08:24;9.00;83.30
11538;DHT22;50159;49.426;11.182;2024-01-30T15:10:51;8.90;83.50
11538;DHT22;50159;49.426;11.182;2024-01-30T15:13:19;8.90;84.10
11538;DHT22;50159;49.426;11.182;2024-01-30T15:15:46;8.80;84.60
11538;DHT22;50159;49.426;11.182;2024-01-30T15:18:13;8.70;85.30
11538;DHT22;50159;49.426;11.182;2024-01-30T15:20:40;8.70;85.70
11538;DHT22;50159;49.426;11.182;2024-01-30T15:23:07;8.60;86.10
11538;DHT22;50159;49.426;11.182;2024-01-30T15:25:34;8.50;86.30
11538;DHT22;50159;49.426;11.182;2024-01-30T15:28:01;8.40;86.80
11538;DHT22;50159;49.426;11.182;2024-01-30T15:30:29;8.40;87.30